createdAt,value
2022-09-04T00:00:16.021Z,14.14
2022-09-04T00:02:53.030Z,14.10
2022-09-04T00:05:20.315Z,14.09
2022-09-04T00:08:22.342Z,14.03
2022-09-04T00:10:48.858Z,13.97
2022-09-04T00:13:23.222Z,13.93
2022-09-04T00:16:21.653Z,13.92
2022-09-04T00:18:54.109Z,13.89
2022-09-04T00:21:48.309Z,13.87
2022-09-04T00:24:16.245Z,13.83
2022-09-04T00:27:09.350Z,13.81
2022-09-04T00:29:58.192Z,13.79
2022-09-04T00:32:31.177Z,13.78
2022-09-04T00:35:19.818Z,13.75
2022-09-04T00:37:50.469Z,13.68
2022-09-04T00:40:41.205Z,13.64
2022-09-04T00:43:22.104Z,13.60
2022-09-04T00:46:30.287Z,13.49
2022-09-04T00:49:03.179Z,13.45
2022-09-04T00:51:51.464Z,13.41
2022-09-04T00:54:22.916Z,13.35
2022-09-04T00:57:03.672Z,13.29
2022-09-04T00:59:34.585Z,13.23
2022-09-04T01:02:26.728Z,13.18
2022-09-04T01:05:24.169Z,13.10
2022-09-04T01:07:59.457Z,13.07
2022-09-04T01:10:46.397Z,12.99
2022-09-04T01:13:25.369Z,12.94
2022-09-04T01:16:11.156Z,12.93
2022-09-04T01:18:45.978Z,12.92
2022-09-04T01:21:45.690Z,12.93
2022-09-04T01:24:32.973Z,12.87
2022-09-04T01:27:21.461Z,12.84
2022-09-04T01:29:58.886Z,12.82
2022-09-04T01:32:43.052Z,12.77
2022-09-04T01:35:21.655Z,12.75
2022-09-04T01:38:07.561Z,12.69
2022-09-04T01:40:40.102Z,12.67
2022-09-04T01:43:21.024Z,12.64
2022-09-04T01:45:50.548Z,12.61
2022-09-04T01:48:23.452Z,12.60
2022-09-04T01:50:54.435Z,12.58
2022-09-04T01:53:25.941Z,12.55
2022-09-04T01:56:04.700Z,12.53
2022-09-04T01:58:46.588Z,12.51
2022-09-04T02:01:55.252Z,12.48
2022-09-04T02:04:27.765Z,12.48
2022-09-04T02:07:11.205Z,12.46
2022-09-04T02:09:46.056Z,12.46
2022-09-04T02:12:34.370Z,12.44
2022-09-04T02:15:18.378Z,12.41
2022-09-04T02:17:51.261Z,12.39
2022-09-04T02:20:25.946Z,12.37
2022-09-04T02:23:30.150Z,12.32
2022-09-04T02:26:20.351Z,12.26
2022-09-04T02:29:00.669Z,12.23
2022-09-04T02:31:35.134Z,12.20
2022-09-04T02:34:09.978Z,12.22
2022-09-04T02:37:01.184Z,12.19
2022-09-04T02:40:03.085Z,12.12
2022-09-04T02:42:51.463Z,12.10
2022-09-04T02:45:39.706Z,12.05
2022-09-04T02:48:28.393Z,12.00
2022-09-04T02:51:13.846Z,11.99
2022-09-04T02:54:00.073Z,12.01
2022-09-04T02:56:52.731Z,11.99
2022-09-04T02:59:35.174Z,11.96
2022-09-04T03:02:05.320Z,11.93
2022-09-04T03:04:49.864Z,11.92
2022-09-04T03:07:35.787Z,11.89
2022-09-04T03:10:20.732Z,11.83
2022-09-04T03:13:05.389Z,11.81
2022-09-04T03:15:38.304Z,11.84
2022-09-04T03:18:24.139Z,11.79
2022-09-04T03:21:01.685Z,11.75
2022-09-04T03:23:40.419Z,11.71
2022-09-04T03:26:35.756Z,11.70
2022-09-04T03:29:14.872Z,11.68
2022-09-04T03:31:58.567Z,11.62
2022-09-04T03:34:42.388Z,11.61
2022-09-04T03:37:19.081Z,11.56
2022-09-04T03:39:53.975Z,11.54
2022-09-04T03:42:50.360Z,11.48
2022-09-04T03:45:21.328Z,11.46
2022-09-04T03:48:30.011Z,11.45
2022-09-04T03:51:24.316Z,11.38
2022-09-04T03:54:29.604Z,11.39
2022-09-04T03:57:07.780Z,11.40
2022-09-04T04:00:01.762Z,11.36
2022-09-04T04:02:45.166Z,11.39
2022-09-04T04:05:39.613Z,11.32
2022-09-04T04:08:21.576Z,11.31
2022-09-04T04:11:21.192Z,11.29
2022-09-04T04:14:15.281Z,11.29
2022-09-04T04:17:01.692Z,11.29
2022-09-04T04:19:58.064Z,11.24
2022-09-04T04:22:46.477Z,11.21
2022-09-04T04:25:49.885Z,11.20
2022-09-04T04:28:59.148Z,11.19
2022-09-04T04:32:06.887Z,11.16
2022-09-04T04:34:45.685Z,11.09
2022-09-04T04:37:26.297Z,11.05
2022-09-04T04:40:03.553Z,11.07
2022-09-04T04:42:44.877Z,11.08
2022-09-04T04:45:40.776Z,11.05
2022-09-04T04:48:29.826Z,11.02
2022-09-04T04:51:28.025Z,11.03
2022-09-04T04:54:00.717Z,11.00
2022-09-04T04:56:34.781Z,11.02
2022-09-04T04:59:32.357Z,10.97
2022-09-04T05:02:11.950Z,10.97
2022-09-04T05:05:13.435Z,10.94
2022-09-04T05:07:53.269Z,10.94
2022-09-04T05:10:35.169Z,10.92
2022-09-04T05:13:23.188Z,10.89
2022-09-04T05:16:16.594Z,10.91
2022-09-04T05:18:57.936Z,10.90
2022-09-04T05:21:47.158Z,10.92
2022-09-04T05:24:31.721Z,10.95
2022-09-04T05:27:12.496Z,10.96
2022-09-04T05:29:51.684Z,10.97
2022-09-04T05:32:27.426Z,11.02
2022-09-04T05:35:22.332Z,11.03
2022-09-04T05:38:16.031Z,11.03
2022-09-04T05:41:05.493Z,11.08
2022-09-04T05:43:47.286Z,11.10
2022-09-04T05:46:28.423Z,11.13
2022-09-04T05:49:19.965Z,11.16
2022-09-04T05:52:18.909Z,11.19
2022-09-04T05:55:09.057Z,11.24
2022-09-04T05:57:41.425Z,11.27
2022-09-04T06:00:09.950Z,11.29
2022-09-04T06:03:10.681Z,11.35
2022-09-04T06:06:06.218Z,11.46
2022-09-04T06:08:51.657Z,11.52
2022-09-04T06:11:51.353Z,11.55
2022-09-04T06:14:56.029Z,11.64
2022-09-04T06:17:39.886Z,11.73
2022-09-04T06:20:28.773Z,11.80
2022-09-04T06:23:34.446Z,11.87
2022-09-04T06:26:07.152Z,12.02
2022-09-04T06:29:04.878Z,12.08
2022-09-04T06:31:45.642Z,12.17
2022-09-04T06:34:31.048Z,12.25
2022-09-04T06:37:00.630Z,12.36
2022-09-04T06:40:04.843Z,12.45
2022-09-04T06:42:56.497Z,12.55
2022-09-04T06:46:02.136Z,12.64
2022-09-04T06:48:47.372Z,12.82
2022-09-04T06:51:53.485Z,12.86
2022-09-04T06:54:41.853Z,13.01
2022-09-04T06:57:35.341Z,13.06
2022-09-04T07:00:08.828Z,13.20
2022-09-04T07:02:51.931Z,13.30
2022-09-04T07:05:23.921Z,13.37
2022-09-04T07:08:28.965Z,13.55
2022-09-04T07:11:19.025Z,13.65
2022-09-04T07:13:45.625Z,13.73
2022-09-04T07:16:25.977Z,13.83
2022-09-04T07:19:26.498Z,14.03
2022-09-04T07:22:03.895Z,14.21
2022-09-04T07:25:00.882Z,14.34
2022-09-04T07:28:02.737Z,14.45
2022-09-04T07:30:36.962Z,14.52
2022-09-04T07:33:12.801Z,14.60
2022-09-04T07:35:50.616Z,14.74
2022-09-04T07:38:50.613Z,14.87
2022-09-04T07:41:35.249Z,15.11
2022-09-04T07:44:15.054Z,15.13
2022-09-04T07:46:46.915Z,15.27
2022-09-04T07:49:37.207Z,15.59
2022-09-04T07:52:42.771Z,15.68
2022-09-04T07:55:31.467Z,15.85
2022-09-04T07:58:32.006Z,16.11
2022-09-04T08:01:13.384Z,16.26
2022-09-04T08:03:58.882Z,16.38
2022-09-04T08:06:33.630Z,16.65
2022-09-04T08:09:02.604Z,16.90
2022-09-04T08:11:40.320Z,17.06
2022-09-04T08:14:33.021Z,17.34
2022-09-04T08:17:25.281Z,17.68
2022-09-04T08:20:09.490Z,17.88
2022-09-04T08:22:57.570Z,18.11
2022-09-04T08:25:46.179Z,18.34
2022-09-04T08:28:33.347Z,18.53
2022-09-04T08:31:10.291Z,18.73
2022-09-04T08:33:49.476Z,19.03
2022-09-04T08:36:56.714Z,19.29
2022-09-04T08:39:32.344Z,19.46
2022-09-04T08:42:19.308Z,19.68
2022-09-04T08:44:56.041Z,19.89
2022-09-04T08:47:51.559Z,20.14
2022-09-04T08:50:40.085Z,20.18
2022-09-04T08:53:22.238Z,20.28
2022-09-04T08:56:18.531Z,20.36
2022-09-04T08:59:08.133Z,20.66
2022-09-04T09:02:04.039Z,20.73
2022-09-04T09:05:00.037Z,20.89
2022-09-04T09:08:08.570Z,20.93
2022-09-04T09:10:42.910Z,21.20
2022-09-04T09:13:29.999Z,21.37
2022-09-04T09:16:30.893Z,21.54
2022-09-04T09:19:20.757Z,21.68
2022-09-04T09:22:18.387Z,21.76
2022-09-04T09:24:57.310Z,21.84
2022-09-04T09:27:42.558Z,21.92
2022-09-04T09:30:17.942Z,22.04
2022-09-04T09:33:06.548Z,22.19
2022-09-04T09:35:42.158Z,22.28
2022-09-04T09:38:36.769Z,22.42
2022-09-04T09:41:25.339Z,22.55
2022-09-04T09:44:20.537Z,22.67
2022-09-04T09:47:34.617Z,22.80
2022-09-04T09:50:16.421Z,22.89
2022-09-04T09:53:22.260Z,22.97
2022-09-04T09:56:16.645Z,23.11
2022-09-04T09:59:21.262Z,23.06
2022-09-04T10:02:13.153Z,23.20
2022-09-04T10:04:53.748Z,23.36
2022-09-04T10:07:28.369Z,23.24
2022-09-04T10:10:13.821Z,23.39
2022-09-04T10:13:01.996Z,23.57
2022-09-04T10:16:01.062Z,23.65
2022-09-04T10:18:59.118Z,23.44
2022-09-04T10:22:00.061Z,23.61
2022-09-04T10:25:02.023Z,23.68
2022-09-04T10:27:46.551Z,23.85
2022-09-04T10:30:18.955Z,23.84
2022-09-04T10:32:51.621Z,23.84
2022-09-04T10:35:57.131Z,23.74
2022-09-04T10:39:06.069Z,23.96
2022-09-04T10:41:48.949Z,24.14
2022-09-04T10:44:55.261Z,24.07
2022-09-04T10:47:35.858Z,24.06
2022-09-04T10:50:35.325Z,24.06
2022-09-04T10:53:31.503Z,24.09
2022-09-04T10:56:02.132Z,24.15
2022-09-04T10:58:40.416Z,24.31
2022-09-04T11:01:19.941Z,24.39
2022-09-04T11:04:22.469Z,24.37
2022-09-04T11:07:08.357Z,24.36
2022-09-04T11:10:04.258Z,24.16
2022-09-04T11:12:59.065Z,24.28
2022-09-04T11:15:47.493Z,24.43
2022-09-04T11:18:51.504Z,24.56
2022-09-04T11:22:03.682Z,24.57
2022-09-04T11:25:12.248Z,24.51
2022-09-04T11:28:19.493Z,24.42
2022-09-04T11:31:27.937Z,24.51
2022-09-04T11:34:15.229Z,24.55
2022-09-04T11:37:21.556Z,24.51
2022-09-04T11:39:57.351Z,24.49
2022-09-04T11:42:31.750Z,24.59
2022-09-04T11:45:26.869Z,24.61
2022-09-04T11:48:01.946Z,24.54
2022-09-04T11:50:56.406Z,24.53
2022-09-04T11:53:44.400Z,24.53
2022-09-04T11:56:48.974Z,24.56
2022-09-04T11:59:51.005Z,24.40
2022-09-04T12:02:44.438Z,24.43
2022-09-04T12:05:41.145Z,24.55
2022-09-04T12:08:38.120Z,24.55
2022-09-04T12:11:20.560Z,24.55
2022-09-04T12:13:58.236Z,24.66
2022-09-04T12:16:44.571Z,24.63
2022-09-04T12:19:43.346Z,24.53
2022-09-04T12:22:45.779Z,24.54
2022-09-04T12:25:55.235Z,24.57
2022-09-04T12:28:48.674Z,24.49
2022-09-04T12:31:34.246Z,24.50
2022-09-04T12:34:13.282Z,24.46
2022-09-04T12:37:06.025Z,24.50
2022-09-04T12:39:59.120Z,24.54
2022-09-04T12:42:34.310Z,24.50
2022-09-04T12:45:23.523Z,24.52
2022-09-04T12:48:03.238Z,24.56
2022-09-04T12:50:39.968Z,24.52
2022-09-04T12:53:34.178Z,24.55
2022-09-04T12:56:26.281Z,24.64
2022-09-04T12:59:06.827Z,24.74
2022-09-04T13:01:56.980Z,24.81
2022-09-04T13:04:28.334Z,24.84
2022-09-04T13:07:06.997Z,24.87
2022-09-04T13:10:08.628Z,24.95
2022-09-04T13:12:55.750Z,24.91
2022-09-04T13:15:48.518Z,24.93
2022-09-04T13:18:46.586Z,24.92
2022-09-04T13:21:13.201Z,24.89
2022-09-04T13:24:00.097Z,25.01
2022-09-04T13:26:32.719Z,24.98
2022-09-04T13:29:21.425Z,24.99
2022-09-04T13:32:24.036Z,25.03
2022-09-04T13:35:17.377Z,25.03
2022-09-04T13:38:19.981Z,24.98
2022-09-04T13:41:05.269Z,25.03
2022-09-04T13:43:37.842Z,25.05
2022-09-04T13:46:12.646Z,25.07
2022-09-04T13:48:52.027Z,25.14
2022-09-04T13:51:24.750Z,25.22
2022-09-04T13:54:00.766Z,25.33
2022-09-04T13:56:46.509Z,25.20
2022-09-04T13:59:17.338Z,25.28
2022-09-04T14:01:50.926Z,25.38
2022-09-04T14:04:46.113Z,25.48
2022-09-04T14:07:21.085Z,25.47
2022-09-04T14:09:50.735Z,25.38
2022-09-04T14:12:55.049Z,25.36
2022-09-04T14:15:46.130Z,25.36
2022-09-04T14:18:22.328Z,25.32
2022-09-04T14:21:01.092Z,25.32
2022-09-04T14:23:43.468Z,25.10
2022-09-04T14:26:37.473Z,25.16
2022-09-04T14:29:21.061Z,25.28
2022-09-04T14:32:00.707Z,25.23
2022-09-04T14:34:40.945Z,25.27
2022-09-04T14:37:36.926Z,25.32
2022-09-04T14:40:14.746Z,25.38
2022-09-04T14:42:47.934Z,25.38
2022-09-04T14:45:18.185Z,25.36
2022-09-04T14:47:54.833Z,25.36
2022-09-04T14:50:30.957Z,25.37
2022-09-04T14:53:01.438Z,25.44
2022-09-04T14:55:32.199Z,25.35
2022-09-04T14:58:04.233Z,25.42
2022-09-04T15:00:34.641Z,25.43
2022-09-04T15:03:24.468Z,25.45
2022-09-04T15:06:05.524Z,25.45
2022-09-04T15:08:40.658Z,25.52
2022-09-04T15:11:31.184Z,25.39
2022-09-04T15:14:04.725Z,25.35
2022-09-04T15:16:44.324Z,25.25
2022-09-04T15:19:45.183Z,25.21
2022-09-04T15:22:22.067Z,25.20
2022-09-04T15:24:59.043Z,25.21
2022-09-04T15:27:34.925Z,25.12
2022-09-04T15:30:06.893Z,25.18
2022-09-04T15:32:40.104Z,25.23
2022-09-04T15:35:26.847Z,25.22
2022-09-04T15:38:11.261Z,25.20
2022-09-04T15:41:05.703Z,25.20
2022-09-04T15:43:42.550Z,25.18
2022-09-04T15:46:22.952Z,25.17
2022-09-04T15:49:29.129Z,25.16
2022-09-04T15:52:37.254Z,25.17
2022-09-04T15:55:11.493Z,25.19
2022-09-04T15:57:50.313Z,25.24
2022-09-04T16:00:24.401Z,25.22
2022-09-04T16:03:06.937Z,25.18
2022-09-04T16:05:46.980Z,25.10
2022-09-04T16:08:26.189Z,25.10
2022-09-04T16:11:09.401Z,25.10
2022-09-04T16:13:58.223Z,25.09
2022-09-04T16:16:51.618Z,25.01
2022-09-04T16:19:29.142Z,25.02
2022-09-04T16:22:10.091Z,25.00
2022-09-04T16:24:47.626Z,24.95
2022-09-04T16:27:23.013Z,24.92
2022-09-04T16:29:57.272Z,24.85
2022-09-04T16:32:28.766Z,24.88
2022-09-04T16:35:01.761Z,24.86
2022-09-04T16:37:38.920Z,24.82
2022-09-04T16:40:19.075Z,24.76
2022-09-04T16:43:11.948Z,24.69
2022-09-04T16:46:18.301Z,24.64
2022-09-04T16:48:57.817Z,24.56
2022-09-04T16:51:40.583Z,24.50
2022-09-04T16:54:49.033Z,24.43
2022-09-04T16:57:18.498Z,24.35
2022-09-04T17:00:12.048Z,24.30
2022-09-04T17:03:17.533Z,24.23
2022-09-04T17:05:51.212Z,24.21
2022-09-04T17:08:30.972Z,24.08
2022-09-04T17:11:35.568Z,24.03
2022-09-04T17:14:14.229Z,23.97
2022-09-04T17:16:59.696Z,23.90
2022-09-04T17:19:27.511Z,23.83
2022-09-04T17:28:54.267Z,23.80
2022-09-04T17:29:05.206Z,23.73
2022-09-04T17:31:55.830Z,23.58
2022-09-04T17:40:41.350Z,23.49
2022-09-04T17:40:49.125Z,23.44
2022-09-04T17:40:49.878Z,23.36
2022-09-04T17:43:29.012Z,23.27
2022-09-04T17:46:34.806Z,23.20
2022-09-04T17:49:11.661Z,23.10
2022-09-04T17:51:38.793Z,23.01
2022-09-04T17:54:13.509Z,22.90
2022-09-04T17:56:57.320Z,22.80
2022-09-04T17:59:45.432Z,22.72
2022-09-04T18:02:28.423Z,22.62
2022-09-04T18:05:08.597Z,22.53
2022-09-04T18:08:08.950Z,22.46
2022-09-04T18:10:34.280Z,22.42
2022-09-04T18:13:37.392Z,22.32
2022-09-04T18:16:21.362Z,22.29
2022-09-04T18:19:21.078Z,22.21
2022-09-04T18:22:26.918Z,22.12
2022-09-04T18:25:16.427Z,22.02
2022-09-04T18:28:06.213Z,21.92
2022-09-04T18:37:06.944Z,21.84
2022-09-04T18:37:26.391Z,21.70
2022-09-04T18:37:44.036Z,21.61
2022-09-04T18:40:15.551Z,21.50
2022-09-04T18:50:21.178Z,21.43
2022-09-04T18:50:39.878Z,21.33
2022-09-04T18:50:43.338Z,21.26
2022-09-04T18:51:30.442Z,21.19
2022-09-04T18:54:21.414Z,21.13
2022-09-04T18:56:53.590Z,21.06
2022-09-04T18:59:32.819Z,21.01
2022-09-04T19:02:02.835Z,20.98
2022-09-04T19:04:41.428Z,20.93
2022-09-04T19:07:27.349Z,20.87
2022-09-04T19:10:12.497Z,20.81
2022-09-04T19:13:02.198Z,20.71
2022-09-04T19:15:50.929Z,20.67
2022-09-04T19:18:45.128Z,20.62
2022-09-04T19:21:14.161Z,20.57
2022-09-04T19:24:13.849Z,20.52
2022-09-04T19:26:55.881Z,20.51
2022-09-04T19:29:25.535Z,20.49
2022-09-04T19:32:09.498Z,20.49
2022-09-04T19:34:56.436Z,20.46
2022-09-04T19:40:22.975Z,20.43
2022-09-04T19:45:56.403Z,20.39
2022-09-04T19:46:15.505Z,20.33
2022-09-04T19:46:28.250Z,20.31
2022-09-04T19:49:25.513Z,20.29
2022-09-04T19:53:35.187Z,20.27
2022-09-04T19:55:40.314Z,20.21
2022-09-04T19:58:11.258Z,20.19
2022-09-04T20:00:48.017Z,20.16
2022-09-04T20:03:30.136Z,20.13
2022-09-04T20:06:21.051Z,20.12
2022-09-04T20:09:05.237Z,20.07
2022-09-04T20:11:40.785Z,20.04
2022-09-04T20:14:33.976Z,20.03
2022-09-04T20:17:33.461Z,20.00
2022-09-04T20:20:05.869Z,19.94
2022-09-04T20:22:56.511Z,19.92
2022-09-04T20:25:29.335Z,19.89
2022-09-04T20:28:20.430Z,19.86
2022-09-04T20:31:35.550Z,19.85
2022-09-04T20:34:25.345Z,19.80
2022-09-04T20:37:15.815Z,19.70
2022-09-04T20:39:52.659Z,19.71
2022-09-04T20:42:33.643Z,19.68
2022-09-04T20:46:32.944Z,19.67
2022-09-04T20:52:49.560Z,19.63
2022-09-04T20:52:59.315Z,19.63
2022-09-04T20:54:01.574Z,19.56
2022-09-04T20:58:32.289Z,19.53
2022-09-04T21:03:08.435Z,19.50
2022-09-04T21:03:28.206Z,19.48
2022-09-04T21:06:14.450Z,19.45
2022-09-04T21:09:19.422Z,19.42
2022-09-04T21:11:51.817Z,19.42
2022-09-04T21:14:44.675Z,19.40
2022-09-04T21:17:34.948Z,19.40
2022-09-04T21:20:23.796Z,19.35
2022-09-04T21:23:12.369Z,19.32
2022-09-04T21:25:58.625Z,19.30
2022-09-04T21:28:45.902Z,19.28
2022-09-04T21:31:43.323Z,19.31
2022-09-04T21:34:27.517Z,19.26
2022-09-04T21:37:05.545Z,19.21
2022-09-04T21:39:47.951Z,19.19
2022-09-04T21:42:44.281Z,19.15
2022-09-04T21:46:00.248Z,19.13
2022-09-04T21:48:42.685Z,19.10
2022-09-04T21:51:39.456Z,19.10
2022-09-04T21:54:37.785Z,19.06
2022-09-04T22:02:29.105Z,19.03
2022-09-04T22:02:43.254Z,19.01
2022-09-04T22:03:22.612Z,18.99
2022-09-04T22:08:20.444Z,18.94
2022-09-04T22:13:29.663Z,18.90
2022-09-04T22:13:42.343Z,18.85
2022-09-04T22:16:13.485Z,18.84
2022-09-04T22:18:53.666Z,18.83
2022-09-04T22:21:44.462Z,18.85
2022-09-04T22:24:29.761Z,18.79
2022-09-04T22:27:18.419Z,18.74
2022-09-04T22:30:06.127Z,18.71
2022-09-04T22:32:50.976Z,18.70
2022-09-04T22:36:15.263Z,18.64
2022-09-04T22:39:00.284Z,18.60
2022-09-04T22:41:47.149Z,18.55
2022-09-04T22:44:47.725Z,18.53
2022-09-04T22:47:42.455Z,18.44
2022-09-04T22:50:50.048Z,18.37
2022-09-04T22:53:29.526Z,18.35
2022-09-04T22:56:23.497Z,18.29
2022-09-04T22:59:25.604Z,18.27
2022-09-04T23:02:18.165Z,18.21
2022-09-04T23:04:53.816Z,18.17
2022-09-04T23:11:37.254Z,18.13
2022-09-04T23:13:51.045Z,18.09
2022-09-04T23:14:06.470Z,18.03
2022-09-04T23:17:02.225Z,17.97
2022-09-04T23:26:37.993Z,17.91
2022-09-04T23:26:43.773Z,17.83
2022-09-04T23:26:50.900Z,17.80
2022-09-04T23:29:19.363Z,17.76
2022-09-04T23:32:10.089Z,17.68
2022-09-04T23:35:14.297Z,17.64
2022-09-04T23:38:20.085Z,17.60
2022-09-04T23:40:59.185Z,17.59
2022-09-04T23:43:40.198Z,17.56
2022-09-04T23:46:49.192Z,17.52
2022-09-04T23:49:27.945Z,17.50
2022-09-04T23:52:10.557Z,17.41
2022-09-04T23:54:49.417Z,17.37
2022-09-04T23:57:28.831Z,17.34
